Macau, Brazil
Current Conditions -  °F | °C
As of 5:00 AM on Sunday 23 Nov 2014 (Local Time) from SBNT Reporting Station
Scattered Clouds Scattered Clouds  
Wind Chill: 77°   Ceiling: Unl
Heat Index: 79°   Visibility: 6mi
Dew Point: 68°   Wind: 8mph
Humidity: 74%   Direction: 110°ESE
Pressure: 29.88"   Gusts: NA
Location:  5.12°S, 36.63°W
Report Text: SBNT 230800Z 11007KT 9999 SCT020 25/20 Q1012
Loading
Personal Weather Stations






























Interactive Weather Map New forecast layout! Learn more

10-Day Weather Forecast

Advertisements
Track Severe Weather on mobile